METAR Data
IDs: Format: Raw Decoded Include TAF

Data at: 0112 UTC 06 Dec 2019

K1M5 060055Z AUTO 19005KT 10SM CLR 10/M00 A3009 RMK A01
K1M5 060030Z AUTO 18004KT 10SM CLR 10/M00 A3009 RMK A01
K1M5 060015Z AUTO 18005KT 10SM CLR 09/M00 A3009 RMK A01
K1M5 052355Z AUTO 19005KT 10SM CLR 11/M00 A3009 RMK A01
K1M5 052335Z AUTO 19005KT 10SM CLR 11/M00 A3008 RMK A01
K1M5 052315Z AUTO 18004KT 10SM CLR 11/M00 A3008 RMK A01
K1M5 052255Z AUTO 16005KT 10SM CLR 12/M00 A3007 RMK A01
K1M5 052230Z AUTO 17005KT 10SM CLR 13/00 A3007 RMK A01
K1M5 052215Z AUTO 15004KT 10SM CLR 13/M00 A3007 RMK A01
K1M5 052155Z AUTO 18006KT 10SM CLR 14/00 A3008 RMK A01
K1M5 052135Z AUTO 19007KT 10SM CLR 15/M00 A3008 RMK A01
K1M5 052115Z AUTO 20006KT 10SM CLR 15/M00 A3008 RMK A01
K1M5 052055Z AUTO 19006KT 10SM CLR 14/M00 A3008 RMK A01
K1M5 052035Z AUTO 18007KT 10SM CLR 16/M00 A3008 RMK A01
K1M5 052015Z AUTO 23005KT 10SM CLR 15/M01 A3008 RMK A01
K1M5 051955Z AUTO 21005KT 10SM CLR 15/M01 A3008 RMK A01
K1M5 051935Z AUTO 22006G11KT 10SM CLR 15/M01 A3009 RMK A01
K1M5 051915Z AUTO 20007KT 170V240 10SM CLR 15/M01 A3008 RMK A01
K1M5 051855Z AUTO 17009KT 10SM CLR 15/M01 A3008 RMK A01
K1M5 051835Z AUTO 18007KT 150V210 10SM CLR 15/M00 A3009 RMK A01
K1M5 051815Z AUTO 18007KT 10SM CLR 15/00 A3010 RMK A01
K1M5 051755Z AUTO 16007KT 10SM CLR 14/00 A3011 RMK A01
K1M5 051735Z AUTO 19008KT 10SM CLR 13/00 A3011 RMK A01
K1M5 051715Z AUTO 18007KT 10SM CLR 13/01 A3012 RMK A01
K1M5 051655Z AUTO 20007KT 10SM CLR 12/01 A3013 RMK A01
K1M5 051615Z AUTO 17007KT 140V200 10SM CLR 12/02 A3014 RMK A01
K1M5 051555Z AUTO 19006KT 10SM CLR 11/02 A3014 RMK A01
K1M5 051535Z AUTO 17007KT 10SM CLR 10/02 A3014 RMK A01
K1M5 051515Z AUTO 18006KT 10SM CLR 08/02 A3014 RMK A01
K1M5 051455Z AUTO 18005KT 10SM CLR 08/02 A3013 RMK A01
K1M5 051435Z AUTO 18005KT 10SM CLR 06/02 A3013 RMK A01
K1M5 051415Z AUTO 20005KT 10SM CLR 06/02 A3012 RMK A01
K1M5 051355Z AUTO 19005KT 10SM CLR 03/01 A3011 RMK A01
K1M5 051335Z AUTO 19005KT 10SM CLR 01/M00 A3011 RMK A01
K1M5 051315Z AUTO 20005KT 10SM CLR M00/M01 A3010 RMK A01
K1M5 051255Z AUTO 00000KT 10SM CLR M01/M02 A3009 RMK A01
K1M5 051235Z AUTO 15003KT 10SM CLR M01/M02 A3008 RMK A01
K1M5 051215Z AUTO 18005KT 10SM CLR M00/M01 A3007 RMK A01
K1M5 051155Z AUTO 00000KT 10SM CLR M01/M01 A3006 RMK A01
K1M5 051135Z AUTO 00000KT 10SM CLR M01/M01 A3006 RMK A01
K1M5 051115Z AUTO 00000KT 10SM CLR M01/M01 A3006 RMK A01
K1M5 051055Z AUTO 00000KT 10SM CLR 00/M01 A3006 RMK A01
K1M5 051035Z AUTO 18004KT 10SM CLR 01/M01 A3005 RMK A01
K1M5 051015Z AUTO 18004KT 10SM CLR 01/M01 A3005 RMK A01
K1M5 050955Z AUTO 00000KT 10SM CLR M00/M01 A3005 RMK A01
K1M5 050935Z AUTO 00000KT 10SM CLR 01/M01 A3005 RMK A01
K1M5 050915Z AUTO 00000KT 10SM CLR 02/M01 A3004 RMK A01
K1M5 050855Z AUTO 00000KT 10SM CLR 03/M00 A3004 RMK A01
K1M5 050835Z AUTO 00000KT 10SM CLR 02/M00 A3004 RMK A01
K1M5 050810Z AUTO 00000KT 10SM CLR 03/M00 A3003 RMK A01
K1M5 050755Z AUTO 00000KT 10SM CLR 04/M00 A3003 RMK A01
K1M5 050735Z AUTO 00000KT 10SM CLR 05/M00 A3003 RMK A01
K1M5 050715Z AUTO 00000KT 10SM CLR 05/M00 A3003 RMK A01
K1M5 050655Z AUTO 00000KT 10SM CLR 04/M01 A3002 RMK A01
K1M5 050635Z AUTO 00000KT 10SM CLR 05/M01 A3002 RMK A01
K1M5 050615Z AUTO 00000KT 10SM CLR 05/M01 A3001 RMK A01
K1M5 050555Z AUTO 26003KT 10SM CLR 06/M01 A3001 RMK A01
K1M5 050535Z AUTO 25003KT 10SM CLR 06/M01 A3001 RMK A01
K1M5 050515Z AUTO 00000KT 10SM CLR 06/M01 A3000 RMK A01
K1M5 050455Z AUTO 26004KT 10SM CLR 06/M01 A2999 RMK A01
K1M5 050435Z AUTO 25003KT 10SM CLR 07/M01 A2999 RMK A01
K1M5 050415Z AUTO VRB03KT 10SM CLR 07/M01 A2998 RMK A01
K1M5 050355Z AUTO 24003KT 10SM CLR 07/M01 A2998 RMK A01
K1M5 050335Z AUTO 00000KT 10SM CLR 07/M01 A2998 RMK A01
K1M5 050315Z AUTO 23004KT 10SM CLR 07/M01 A2997 RMK A01
K1M5 050255Z AUTO 00000KT 10SM CLR 07/M02 A2997 RMK A01
K1M5 050235Z AUTO 00000KT 10SM CLR 08/M02 A2996 RMK A01
K1M5 050215Z AUTO 00000KT 10SM CLR 08/M02 A2996 RMK A01
K1M5 050155Z AUTO 23003KT 10SM CLR 08/M02 A2995 RMK A01
K1M5 050135Z AUTO 24003KT 10SM CLR 08/M02 A2995 RMK A01
K1M5 050115Z AUTO 25003KT 10SM CLR 09/M02 A2995 RMK A01
K1M5 050055Z AUTO 25004KT 10SM CLR 09/M02 A2994 RMK A01
K1M5 050035Z AUTO 26004KT 10SM CLR 09/M02 A2993 RMK A01
K1M5 050015Z AUTO 27005KT 10SM CLR 09/M01 A2993 RMK A01
K1M5 042355Z AUTO 27005KT 10SM CLR 09/M01 A2993 RMK A01
K1M5 042335Z AUTO 27005KT 10SM CLR 09/M01 A2993 RMK A01
K1M5 042315Z AUTO 26005KT 10SM CLR 10/M01 A2993 RMK A01
K1M5 042255Z AUTO 26004KT 10SM CLR 10/M01 A2992 RMK A01 P0002
K1M5 042235Z AUTO 27006KT 10SM CLR 11/M01 A2991 RMK A01
K1M5 042215Z AUTO 28004G10KT 1 3/4SM HZ CLR 12/M01 A2991 RMK A01
K1M5 042155Z AUTO 27008KT CLR 12/M01 A2990 RMK A01
K1M5 042135Z AUTO 29008G15KT 10SM CLR 13/M02 A2989 RMK A01
K1M5 042115Z AUTO 29005G12KT 10SM CLR 13/M01 A2989 RMK A01
K1M5 042055Z AUTO 28008G16KT 10SM CLR 13/M02 A2988 RMK A01
K1M5 042035Z AUTO 27011KT 10SM CLR 13/M02 A2987 RMK A01
K1M5 042015Z AUTO 29007G14KT 10SM CLR 13/M02 A2987 RMK A01
K1M5 041955Z AUTO 27009G16KT 10SM CLR 13/M02 A2986 RMK A01
K1M5 041935Z AUTO 28011KT 10SM CLR 13/M02 A2987 RMK A01
K1M5 041915Z AUTO 27010KT 240V320 10SM CLR 13/M02 A2987 RMK A01
K1M5 041855Z AUTO 28009G14KT 10SM CLR 13/M03 A2987 RMK A01
K1M5 041835Z AUTO 26008KT 10SM CLR 13/M02 A2987 RMK A01
K1M5 041815Z AUTO 26010KT 230V290 10SM CLR 12/M02 A2988 RMK A01
K1M5 041755Z AUTO 27011KT 10SM CLR 12/M03 A2988 RMK A01
K1M5 041735Z AUTO 25009KT 220V280 10SM CLR 12/M02 A2989 RMK A01
K1M5 041715Z AUTO 25010KT 10SM CLR 11/M02 A2989 RMK A01
K1M5 041655Z AUTO 26009KT 10SM CLR 10/M02 A2990 RMK A01
K1M5 041635Z AUTO 26007KT 10SM CLR 10/M01 A2989 RMK A01
K1M5 041615Z AUTO 25007KT 10SM CLR 09/M00 A2989 RMK A01
K1M5 041555Z AUTO 25008KT 10SM CLR 09/00 A2989 RMK A01
K1M5 041535Z AUTO 24008KT 10SM CLR 08/01 A2989 RMK A01
K1M5 041515Z AUTO 28007KT 10SM CLR 07/01 A2988 RMK A01
K1M5 041455Z AUTO 26006KT 10SM CLR 07/01 A2988 RMK A01
K1M5 041435Z AUTO 25006KT 10SM CLR 06/01 A2988 RMK A01
K1M5 041415Z AUTO VRB05KT 10SM CLR 05/01 A2987 RMK A01
K1M5 041355Z AUTO 24005KT 10SM CLR 04/01 A2987 RMK A01
K1M5 041335Z AUTO 23005KT 10SM CLR 03/01 A2986 RMK A01
K1M5 041315Z AUTO 24003KT 10SM CLR 03/01 A2986 RMK A01